Time;durP1;ratioP1;P1;durP2;ratioP2;P2;SDS_P1;SDS_P2;PMS_P1;PMS_P2;Temp;Humidity;BMP_temperature;BMP_pressure;BME280_temperature;BME280_humidity;BME280_pressure;Samples;Min_cycle;Max_cycle;Signal;HPM_P1;HPM_P2
2023/08/20 19:04:41;;;;;;;9.13;4.13;;;26.00;73.70;;;;;;5108775;27;20388;-43
2023/08/20 19:07:08;;;;;;;12.30;4.32;;;26.10;65.60;;;;;;5089009;28;20379;-42
2023/08/20 19:09:34;;;;;;;11.73;3.85;;;26.10;67.40;;;;;;5088989;28;20059;-41
2023/08/20 19:12:00;;;;;;;13.93;3.00;;;26.10;65.40;;;;;;5085186;28;20056;-43
2023/08/20 19:14:26;;;;;;;7.75;2.83;;;26.00;63.60;;;;;;5087247;28;20020;-42
2023/08/20 19:16:52;;;;;;;8.60;2.90;;;26.10;62.00;;;;;;5088507;28;20028;-45
2023/08/20 19:19:18;;;;;;;9.52;2.80;;;26.00;60.40;;;;;;5088870;28;20024;-50
2023/08/20 19:21:43;;;;;;;5.78;3.00;;;26.00;61.30;;;;;;5088763;28;20028;-44
2023/08/20 19:24:09;;;;;;;7.38;3.08;;;26.00;60.80;;;;;;5088236;28;20028;-49
2023/08/20 19:26:35;;;;;;;7.03;2.50;;;26.00;60.40;;;;;;5079158;28;20020;-42
2023/08/20 19:29:01;;;;;;;13.20;3.03;;;25.90;60.10;;;;;;5088437;28;20025;-42
2023/08/20 19:31:27;;;;;;;24.40;3.58;;;25.90;59.80;;;;;;5088487;28;20082;-43
2023/08/20 19:33:53;;;;;;;20.02;3.83;;;26.00;60.90;;;;;;5088079;28;20411;-41
2023/08/20 19:36:19;;;;;;;11.80;3.70;;;25.90;60.70;;;;;;5086301;28;20036;-43
2023/08/20 19:38:45;;;;;;;12.27;3.55;;;25.90;60.60;;;;;;5085704;28;20028;-44
2023/08/20 19:41:11;;;;;;;18.38;3.63;;;25.90;60.80;;;;;;5085314;28;20028;-42
2023/08/20 19:43:37;;;;;;;19.73;4.03;;;25.90;61.50;;;;;;5079618;28;20163;-43
2023/08/20 19:46:03;;;;;;;9.23;3.13;;;25.90;62.00;;;;;;5088056;28;20024;-45
2023/08/20 19:48:29;;;;;;;12.93;3.33;;;25.90;62.50;;;;;;5087544;28;20035;-41
2023/08/20 19:50:55;;;;;;;8.15;3.40;;;26.00;62.40;;;;;;5087108;28;20082;-42
2023/08/20 19:53:21;;;;;;;9.70;3.28;;;25.90;62.70;;;;;;5087666;28;20372;-41
2023/08/20 19:55:47;;;;;;;10.80;3.17;;;26.00;63.20;;;;;;5087990;28;20028;-46
2023/08/20 19:58:13;;;;;;;11.80;3.13;;;26.00;63.40;;;;;;5088062;28;20376;-44
2023/08/20 20:00:39;;;;;;;12.50;3.47;;;26.00;63.50;;;;;;5087975;28;20024;-41
2023/08/20 20:03:05;;;;;;;11.13;3.40;;;26.00;63.80;;;;;;5087450;28;20474;-44
2023/08/20 20:05:31;;;;;;;8.75;3.05;;;26.00;64.00;;;;;;5075524;28;20032;-41
2023/08/20 20:07:58;;;;;;;8.70;2.85;;;26.00;64.30;;;;;;5074305;28;20111;-43
2023/08/20 20:10:24;;;;;;;7.82;3.05;;;26.00;64.50;;;;;;5074383;28;20408;-42
2023/08/20 20:12:50;;;;;;;8.43;3.10;;;26.00;64.70;;;;;;5073937;28;20031;-46
2023/08/20 20:15:16;;;;;;;7.97;3.10;;;26.00;64.90;;;;;;5074466;28;20031;-44
2023/08/20 20:17:42;;;;;;;8.35;3.28;;;26.00;65.00;;;;;;5074220;28;20547;-46
2023/08/20 20:20:11;;;;;;;8.98;3.20;;;26.00;65.20;;;;;;5074160;28;20039;-42
2023/08/20 20:22:38;;;;;;;14.48;3.22;;;26.00;65.40;;;;;;5074079;28;20035;-42
2023/08/20 20:25:04;;;;;;;12.23;3.45;;;26.00;65.50;;;;;;5073684;28;20029;-43
2023/08/20 20:27:34;;;;;;;7.40;3.58;;;26.00;65.60;;;;;;5073977;28;20033;-44
2023/08/20 20:30:01;;;;;;;8.48;3.35;;;26.00;65.70;;;;;;5074463;28;20030;-42
2023/08/20 20:32:27;;;;;;;8.25;3.47;;;26.00;65.90;;;;;;5073877;28;20028;-41
2023/08/20 20:34:52;;;;;;;8.05;3.35;;;26.00;66.00;;;;;;5073494;28;20486;-45
2023/08/20 20:37:18;;;;;;;6.07;2.70;;;26.00;66.20;;;;;;5073778;28;20021;-42
2023/08/20 20:39:44;;;;;;;7.07;3.35;;;26.00;66.30;;;;;;5073796;28;20033;-47
2023/08/20 20:42:10;;;;;;;7.75;3.60;;;26.00;66.30;;;;;;5073713;28;20429;-41
2023/08/20 20:44:36;;;;;;;8.13;3.20;;;26.00;66.50;;;;;;5073337;28;20028;-44
2023/08/20 20:47:02;;;;;;;7.30;3.42;;;26.10;66.70;;;;;;5073709;28;20441;-45
2023/08/20 20:49:27;;;;;;;8.55;3.22;;;26.10;66.70;;;;;;5073653;28;20028;-46
2023/08/20 20:51:53;;;;;;;6.38;3.22;;;26.00;66.70;;;;;;5073511;28;20027;-49
2023/08/20 20:54:19;;;;;;;10.07;3.22;;;26.00;67.00;;;;;;5073150;28;20079;-46
2023/08/20 20:56:45;;;;;;;7.07;3.22;;;26.00;66.80;;;;;;5073393;28;20027;-47
2023/08/20 20:59:10;;;;;;;8.57;3.08;;;26.00;67.50;;;;;;5072262;28;20441;-48
2023/08/20 21:01:36;;;;;;;9.50;3.30;;;26.10;67.00;;;;;;5073540;28;20391;-47
2023/08/20 21:04:02;;;;;;;6.28;3.03;;;26.00;67.60;;;;;;5072886;28;20406;-46
2023/08/20 21:06:28;;;;;;;8.52;2.90;;;26.00;67.00;;;;;;5073248;28;20451;-43
2023/08/20 21:08:53;;;;;;;6.28;2.88;;;26.00;67.10;;;;;;5073258;28;20514;-44
2023/08/20 21:11:19;;;;;;;8.13;3.05;;;26.00;67.20;;;;;;5073105;28;20036;-47
2023/08/20 21:13:45;;;;;;;6.03;3.00;;;26.10;67.30;;;;;;5072697;28;20050;-42
2023/08/20 21:16:11;;;;;;;6.55;3.20;;;26.00;67.30;;;;;;5072154;28;20020;-49
2023/08/20 21:18:36;;;;;;;9.25;3.47;;;26.10;67.40;;;;;;5073112;28;20487;-43
2023/08/20 21:21:02;;;;;;;7.20;2.83;;;26.10;67.50;;;;;;5072913;28;20031;-43
2023/08/20 21:23:28;;;;;;;8.80;3.40;;;26.00;67.40;;;;;;5072544;28;20029;-42
2023/08/20 21:25:54;;;;;;;7.50;3.17;;;26.10;67.50;;;;;;5072808;28;20025;-41
2023/08/20 21:28:19;;;;;;;5.72;2.70;;;26.10;67.60;;;;;;5072897;28;20028;-47
2023/08/20 21:30:45;;;;;;;6.88;3.28;;;26.10;67.60;;;;;;5072790;28;20028;-44
2023/08/20 21:33:11;;;;;;;5.88;2.80;;;26.00;67.50;;;;;;5071160;28;20060;-41
2023/08/20 21:35:37;;;;;;;6.57;2.90;;;26.10;67.70;;;;;;5072675;28;20028;-41
2023/08/20 21:38:02;;;;;;;6.25;2.85;;;26.10;67.70;;;;;;5071400;28;20026;-41
2023/08/20 21:40:28;;;;;;;6.32;3.08;;;26.10;67.70;;;;;;5072499;28;20024;-44
2023/08/20 21:42:54;;;;;;;6.32;2.90;;;26.10;67.70;;;;;;5072237;28;20074;-43
2023/08/20 21:45:20;;;;;;;6.80;3.17;;;26.10;67.80;;;;;;5072465;28;20496;-42
2023/08/20 21:47:47;;;;;;;5.30;2.67;;;26.10;67.80;;;;;;5072428;28;20052;-42
2023/08/20 21:50:15;;;;;;;4.75;2.65;;;26.10;67.80;;;;;;5072386;28;20035;-42
2023/08/20 21:52:45;;;;;;;6.57;2.65;;;26.10;67.90;;;;;;5072722;28;20471;-45
2023/08/20 21:55:14;;;;;;;4.85;2.50;;;26.10;67.90;;;;;;5072125;28;20027;-47
2023/08/20 21:57:40;;;;;;;7.43;3.08;;;26.10;68.00;;;;;;5072312;28;20025;-44
2023/08/20 22:00:14;;;;;;;9.18;3.33;;;26.10;68.00;;;;;;5072261;28;20123;-41
2023/08/20 22:02:43;;;;;;;8.50;3.60;;;26.10;68.00;;;;;;5071061;28;20032;-44
2023/08/20 22:05:13;;;;;;;6.82;3.10;;;26.10;68.10;;;;;;5071936;28;20571;-41
2023/08/20 22:07:39;;;;;;;;;;;26.10;68.20;;;;;;5072496;28;20037;-45
2023/08/20 22:10:06;;;;;;;5.82;2.90;;;26.10;68.20;;;;;;5072230;28;20275;-42
2023/08/20 22:12:32;;;;;;;7.57;2.80;;;26.10;68.20;;;;;;5071959;28;20488;-44
2023/08/20 22:14:57;;;;;;;5.47;2.90;;;26.10;68.30;;;;;;5071635;28;20150;-47
2023/08/20 22:17:23;;;;;;;5.78;2.95;;;26.10;68.40;;;;;;5071929;28;20170;-41
2023/08/20 22:19:49;;;;;;;8.25;3.25;;;26.10;68.40;;;;;;5072309;28;20028;-41
2023/08/20 22:22:15;;;;;;;5.22;2.58;;;26.10;68.40;;;;;;5070837;28;20024;-44
2023/08/20 22:24:40;;;;;;;6.00;2.80;;;26.10;68.50;;;;;;5071543;28;20110;-45
2023/08/20 22:27:06;;;;;;;4.97;2.80;;;26.10;68.50;;;;;;5071627;28;20056;-48
2023/08/20 22:29:32;;;;;;;5.78;3.05;;;26.10;68.60;;;;;;5071977;28;20025;-47
2023/08/20 22:31:57;;;;;;;4.00;2.80;;;26.10;68.60;;;;;;5071713;28;20430;-50
2023/08/20 22:34:23;;;;;;;5.93;2.90;;;26.10;68.70;;;;;;5070180;28;20037;-49
2023/08/20 22:36:49;;;;;;;6.63;3.20;;;26.10;68.80;;;;;;5071694;28;20024;-49
2023/08/20 22:39:16;;;;;;;4.75;3.25;;;26.00;68.70;;;;;;5071760;28;20103;-49
2023/08/20 22:41:43;;;;;;;4.82;2.97;;;26.10;68.90;;;;;;5071739;28;20031;-44
2023/08/20 22:44:08;;;;;;;5.70;3.38;;;26.10;68.90;;;;;;5071350;28;20108;-47
2023/08/20 22:46:34;;;;;;;5.18;3.40;;;26.00;68.90;;;;;;5071700;28;20128;-49
2023/08/20 22:49:00;;;;;;;6.05;3.13;;;26.10;69.00;;;;;;5071575;28;20466;-47
2023/08/20 22:51:26;;;;;;;6.47;3.60;;;26.10;69.10;;;;;;5071555;28;20104;-41
2023/08/20 22:53:53;;;;;;;5.80;3.30;;;26.10;69.10;;;;;;5071107;28;20106;-44
2023/08/20 22:56:19;;;;;;;5.55;3.13;;;26.00;69.10;;;;;;5071582;28;20028;-41
2023/08/20 22:58:44;;;;;;;7.15;3.55;;;26.00;69.10;;;;;;5071518;28;20074;-41
2023/08/20 23:01:11;;;;;;;6.28;3.53;;;26.10;69.30;;;;;;5071519;28;20024;-44
2023/08/20 23:03:37;;;;;;;4.35;3.28;;;26.10;69.30;;;;;;5070957;28;20730;-41
2023/08/20 23:06:03;;;;;;;5.97;3.40;;;26.10;69.30;;;;;;5071525;28;20028;-44
2023/08/20 23:08:29;;;;;;;7.40;3.45;;;26.10;69.40;;;;;;5071469;28;20483;-43
2023/08/20 23:10:55;;;;;;;5.18;3.03;;;26.10;69.50;;;;;;5071408;28;20020;-43
2023/08/20 23:13:20;;;;;;;5.93;3.28;;;26.00;69.40;;;;;;5069802;28;20553;-44
2023/08/20 23:15:46;;;;;;;5.32;3.35;;;26.00;69.50;;;;;;5071467;28;20020;-46
2023/08/20 23:18:12;;;;;;;5.05;3.45;;;26.00;69.40;;;;;;5071205;28;20028;-48
2023/08/20 23:20:38;;;;;;;4.47;3.13;;;26.10;69.50;;;;;;5071168;28;20025;-48
2023/08/20 23:23:04;;;;;;;6.38;3.55;;;26.10;69.60;;;;;;5071027;28;20024;-41
2023/08/20 23:25:29;;;;;;;7.63;3.50;;;26.10;69.60;;;;;;5071284;28;20039;-44
2023/08/20 23:27:55;;;;;;;5.65;3.28;;;26.10;69.60;;;;;;5071298;28;20028;-44
2023/08/20 23:30:21;;;;;;;5.57;3.08;;;26.00;69.60;;;;;;5071341;28;20675;-48
2023/08/20 23:32:53;;;;;;;6.57;3.35;;;26.10;69.70;;;;;;5070742;28;20145;-42
2023/08/20 23:35:19;;;;;;;5.40;3.58;;;26.10;69.70;;;;;;5071236;28;20059;-45
2023/08/20 23:37:44;;;;;;;7.50;3.85;;;26.10;69.80;;;;;;5071145;28;20060;-48
2023/08/20 23:40:11;;;;;;;6.13;3.58;;;26.10;69.70;;;;;;5073289;28;20050;-41
2023/08/20 23:42:36;;;;;;;7.50;3.80;;;26.10;69.70;;;;;;5075011;28;20032;-41
2023/08/20 23:45:02;;;;;;;6.13;3.75;;;26.10;69.80;;;;;;5074567;28;20552;-42
2023/08/20 23:47:29;;;;;;;7.43;3.75;;;26.10;69.80;;;;;;5073654;28;20078;-42
2023/08/20 23:49:54;;;;;;;5.85;3.70;;;26.10;69.80;;;;;;5074992;28;20036;-41
2023/08/20 23:52:20;;;;;;;6.07;3.50;;;26.10;69.80;;;;;;5074627;28;20040;-42
2023/08/20 23:54:46;;;;;;;5.97;3.75;;;26.10;69.80;;;;;;5074234;28;20025;-41
2023/08/20 23:57:12;;;;;;;6.82;3.90;;;26.10;69.80;;;;;;5074602;28;20025;-42
2023/08/20 23:59:37;;;;;;;5.35;3.65;;;26.10;69.90;;;;;;5074594;28;20031;-43
